sensor_id;sensor_type;location;lat;lon;timestamp;temperature;humidity
5834;DHT22;2943;48.012;10.968;2023-06-14T00:01:16;15.70;86.30
5834;DHT22;2943;48.012;10.968;2023-06-14T00:03:45;15.70;86.70
5834;DHT22;2943;48.012;10.968;2023-06-14T00:06:12;15.60;86.90
5834;DHT22;2943;48.012;10.968;2023-06-14T00:08:40;15.50;87.60
5834;DHT22;2943;48.012;10.968;2023-06-14T00:11:07;15.50;87.90
5834;DHT22;2943;48.012;10.968;2023-06-14T00:13:34;15.40;87.90
5834;DHT22;2943;48.012;10.968;2023-06-14T00:16:03;15.30;88.40
5834;DHT22;2943;48.012;10.968;2023-06-14T00:18:31;15.30;89.10
5834;DHT22;2943;48.012;10.968;2023-06-14T00:20:58;15.20;89.40
5834;DHT22;2943;48.012;10.968;2023-06-14T00:23:30;15.20;89.30
5834;DHT22;2943;48.012;10.968;2023-06-14T00:25:57;15.10;89.20
5834;DHT22;2943;48.012;10.968;2023-06-14T00:28:25;15.10;89.20
5834;DHT22;2943;48.012;10.968;2023-06-14T00:30:51;15.00;89.40
5834;DHT22;2943;48.012;10.968;2023-06-14T00:33:20;15.00;90.20
5834;DHT22;2943;48.012;10.968;2023-06-14T00:35:47;14.90;89.70
5834;DHT22;2943;48.012;10.968;2023-06-14T00:38:13;14.90;89.90
5834;DHT22;2943;48.012;10.968;2023-06-14T00:40:41;14.90;89.80
5834;DHT22;2943;48.012;10.968;2023-06-14T00:43:10;14.80;89.80
5834;DHT22;2943;48.012;10.968;2023-06-14T00:45:37;14.80;90.00
5834;DHT22;2943;48.012;10.968;2023-06-14T00:48:05;14.80;90.10
5834;DHT22;2943;48.012;10.968;2023-06-14T00:50:34;14.80;90.30
5834;DHT22;2943;48.012;10.968;2023-06-14T00:53:04;14.80;90.50
5834;DHT22;2943;48.012;10.968;2023-06-14T00:55:31;14.80;90.50
5834;DHT22;2943;48.012;10.968;2023-06-14T00:57:58;14.80;90.50
5834;DHT22;2943;48.012;10.968;2023-06-14T01:00:26;14.80;90.60
5834;DHT22;2943;48.012;10.968;2023-06-14T01:02:55;14.70;90.80
5834;DHT22;2943;48.012;10.968;2023-06-14T01:05:23;14.70;91.00
5834;DHT22;2943;48.012;10.968;2023-06-14T01:08:03;14.70;91.00
5834;DHT22;2943;48.012;10.968;2023-06-14T01:10:37;14.70;91.20
5834;DHT22;2943;48.012;10.968;2023-06-14T01:13:11;14.50;91.20
5834;DHT22;2943;48.012;10.968;2023-06-14T01:15:41;14.50;91.40
5834;DHT22;2943;48.012;10.968;2023-06-14T01:18:10;14.40;91.50
5834;DHT22;2943;48.012;10.968;2023-06-14T01:20:45;14.40;91.60
5834;DHT22;2943;48.012;10.968;2023-06-14T01:23:18;14.30;91.90
5834;DHT22;2943;48.012;10.968;2023-06-14T01:25:46;14.30;91.90
5834;DHT22;2943;48.012;10.968;2023-06-14T01:28:16;14.30;91.80
5834;DHT22;2943;48.012;10.968;2023-06-14T01:30:45;14.30;91.80
5834;DHT22;2943;48.012;10.968;2023-06-14T01:33:14;14.20;91.90
5834;DHT22;2943;48.012;10.968;2023-06-14T01:35:43;14.20;92.00
5834;DHT22;2943;48.012;10.968;2023-06-14T01:38:11;14.20;92.20
5834;DHT22;2943;48.012;10.968;2023-06-14T01:40:41;14.20;92.60
5834;DHT22;2943;48.012;10.968;2023-06-14T01:43:10;14.20;92.70
5834;DHT22;2943;48.012;10.968;2023-06-14T01:45:40;14.20;92.70
5834;DHT22;2943;48.012;10.968;2023-06-14T01:48:07;14.10;92.70
5834;DHT22;2943;48.012;10.968;2023-06-14T01:50:35;14.20;92.90
5834;DHT22;2943;48.012;10.968;2023-06-14T01:53:02;14.10;93.00
5834;DHT22;2943;48.012;10.968;2023-06-14T01:55:29;14.00;93.00
5834;DHT22;2943;48.012;10.968;2023-06-14T01:58:04;14.00;93.10
5834;DHT22;2943;48.012;10.968;2023-06-14T02:00:31;14.00;93.20
5834;DHT22;2943;48.012;10.968;2023-06-14T02:02:58;14.00;93.40
5834;DHT22;2943;48.012;10.968;2023-06-14T02:05:27;13.90;93.60
5834;DHT22;2943;48.012;10.968;2023-06-14T02:07:55;13.90;93.70
5834;DHT22;2943;48.012;10.968;2023-06-14T02:10:23;13.90;93.90
5834;DHT22;2943;48.012;10.968;2023-06-14T02:12:50;13.90;93.90
5834;DHT22;2943;48.012;10.968;2023-06-14T02:15:19;13.90;94.10
5834;DHT22;2943;48.012;10.968;2023-06-14T02:17:47;13.80;94.30
5834;DHT22;2943;48.012;10.968;2023-06-14T02:20:16;13.70;94.40
5834;DHT22;2943;48.012;10.968;2023-06-14T02:22:44;13.70;94.80
5834;DHT22;2943;48.012;10.968;2023-06-14T02:25:12;13.60;95.00
5834;DHT22;2943;48.012;10.968;2023-06-14T02:27:39;13.60;95.10
5834;DHT22;2943;48.012;10.968;2023-06-14T02:30:07;13.60;95.30
5834;DHT22;2943;48.012;10.968;2023-06-14T02:32:36;13.50;95.30
5834;DHT22;2943;48.012;10.968;2023-06-14T02:35:05;13.40;95.40
5834;DHT22;2943;48.012;10.968;2023-06-14T02:37:33;13.30;95.50
5834;DHT22;2943;48.012;10.968;2023-06-14T02:40:00;13.30;95.40
5834;DHT22;2943;48.012;10.968;2023-06-14T02:42:27;13.20;95.40
5834;DHT22;2943;48.012;10.968;2023-06-14T02:44:55;13.20;95.50
5834;DHT22;2943;48.012;10.968;2023-06-14T02:47:22;13.20;95.50
5834;DHT22;2943;48.012;10.968;2023-06-14T02:49:51;13.20;95.60
5834;DHT22;2943;48.012;10.968;2023-06-14T02:52:19;13.20;95.60
5834;DHT22;2943;48.012;10.968;2023-06-14T02:54:47;13.10;95.70
5834;DHT22;2943;48.012;10.968;2023-06-14T02:57:16;13.10;95.70
5834;DHT22;2943;48.012;10.968;2023-06-14T02:59:44;13.10;95.80
5834;DHT22;2943;48.012;10.968;2023-06-14T03:02:11;13.10;95.90
5834;DHT22;2943;48.012;10.968;2023-06-14T03:04:38;13.20;96.00
5834;DHT22;2943;48.012;10.968;2023-06-14T03:07:06;13.20;95.90
5834;DHT22;2943;48.012;10.968;2023-06-14T03:09:35;13.20;95.90
5834;DHT22;2943;48.012;10.968;2023-06-14T03:12:08;13.20;96.20
5834;DHT22;2943;48.012;10.968;2023-06-14T03:14:35;13.10;96.10
5834;DHT22;2943;48.012;10.968;2023-06-14T03:17:04;13.10;96.20
5834;DHT22;2943;48.012;10.968;2023-06-14T03:19:33;13.00;96.30
5834;DHT22;2943;48.012;10.968;2023-06-14T03:22:00;13.00;96.60
5834;DHT22;2943;48.012;10.968;2023-06-14T03:24:29;12.90;96.40
5834;DHT22;2943;48.012;10.968;2023-06-14T03:26:57;12.80;96.50
5834;DHT22;2943;48.012;10.968;2023-06-14T03:29:25;12.80;96.70
5834;DHT22;2943;48.012;10.968;2023-06-14T03:31:59;12.70;96.70
5834;DHT22;2943;48.012;10.968;2023-06-14T03:34:26;12.70;96.90
5834;DHT22;2943;48.012;10.968;2023-06-14T03:36:54;12.70;97.00
5834;DHT22;2943;48.012;10.968;2023-06-14T03:39:21;12.70;97.10
5834;DHT22;2943;48.012;10.968;2023-06-14T03:41:49;12.70;97.20
5834;DHT22;2943;48.012;10.968;2023-06-14T03:44:17;12.60;97.20
5834;DHT22;2943;48.012;10.968;2023-06-14T03:46:45;12.60;97.30
5834;DHT22;2943;48.012;10.968;2023-06-14T03:49:12;12.60;97.40
5834;DHT22;2943;48.012;10.968;2023-06-14T03:51:39;12.50;97.50
5834;DHT22;2943;48.012;10.968;2023-06-14T03:54:07;12.50;97.60
5834;DHT22;2943;48.012;10.968;2023-06-14T03:56:36;12.50;97.70
5834;DHT22;2943;48.012;10.968;2023-06-14T03:59:04;12.50;97.90
5834;DHT22;2943;48.012;10.968;2023-06-14T04:01:31;12.50;98.10
5834;DHT22;2943;48.012;10.968;2023-06-14T04:03:59;12.50;98.10
5834;DHT22;2943;48.012;10.968;2023-06-14T04:06:27;12.50;98.20
5834;DHT22;2943;48.012;10.968;2023-06-14T04:08:59;12.50;98.30
5834;DHT22;2943;48.012;10.968;2023-06-14T04:11:30;12.60;98.70
5834;DHT22;2943;48.012;10.968;2023-06-14T04:13:58;12.60;98.90
5834;DHT22;2943;48.012;10.968;2023-06-14T04:16:26;12.70;99.10
5834;DHT22;2943;48.012;10.968;2023-06-14T04:18:54;12.70;99.10
5834;DHT22;2943;48.012;10.968;2023-06-14T04:21:20;12.80;99.30
5834;DHT22;2943;48.012;10.968;2023-06-14T04:23:49;12.80;99.40
5834;DHT22;2943;48.012;10.968;2023-06-14T04:26:18;12.90;99.50
5834;DHT22;2943;48.012;10.968;2023-06-14T04:28:46;12.90;99.90
5834;DHT22;2943;48.012;10.968;2023-06-14T04:31:12;12.90;99.90
5834;DHT22;2943;48.012;10.968;2023-06-14T04:33:43;12.90;99.90
5834;DHT22;2943;48.012;10.968;2023-06-14T04:36:12;12.90;99.90
5834;DHT22;2943;48.012;10.968;2023-06-14T04:38:39;13.00;99.90
5834;DHT22;2943;48.012;10.968;2023-06-14T04:41:06;13.00;99.90
5834;DHT22;2943;48.012;10.968;2023-06-14T04:43:37;13.10;99.90
5834;DHT22;2943;48.012;10.968;2023-06-14T04:46:05;13.10;99.90
5834;DHT22;2943;48.012;10.968;2023-06-14T04:48:36;13.20;99.90
5834;DHT22;2943;48.012;10.968;2023-06-14T04:51:07;13.30;99.90
5834;DHT22;2943;48.012;10.968;2023-06-14T04:53:35;13.30;99.90
5834;DHT22;2943;48.012;10.968;2023-06-14T04:56:04;13.30;99.90
5834;DHT22;2943;48.012;10.968;2023-06-14T04:58:31;13.30;99.90
5834;DHT22;2943;48.012;10.968;2023-06-14T05:00:59;13.30;99.90
5834;DHT22;2943;48.012;10.968;2023-06-14T05:03:30;13.50;99.90
5834;DHT22;2943;48.012;10.968;2023-06-14T05:06:01;14.10;99.90
5834;DHT22;2943;48.012;10.968;2023-06-14T05:08:29;14.60;99.90
5834;DHT22;2943;48.012;10.968;2023-06-14T05:10:57;15.00;99.90
5834;DHT22;2943;48.012;10.968;2023-06-14T05:13:24;15.40;99.90
5834;DHT22;2943;48.012;10.968;2023-06-14T05:15:53;15.60;99.90
5834;DHT22;2943;48.012;10.968;2023-06-14T05:18:21;15.90;99.90
5834;DHT22;2943;48.012;10.968;2023-06-14T05:20:47;16.10;99.90
5834;DHT22;2943;48.012;10.968;2023-06-14T05:23:15;16.30;99.90
5834;DHT22;2943;48.012;10.968;2023-06-14T05:25:44;16.50;99.90
5834;DHT22;2943;48.012;10.968;2023-06-14T05:28:11;16.70;99.90
5834;DHT22;2943;48.012;10.968;2023-06-14T05:30:42;16.80;99.90
5834;DHT22;2943;48.012;10.968;2023-06-14T05:33:09;17.00;99.90
5834;DHT22;2943;48.012;10.968;2023-06-14T05:35:39;17.10;99.90
5834;DHT22;2943;48.012;10.968;2023-06-14T05:38:06;17.20;99.90
5834;DHT22;2943;48.012;10.968;2023-06-14T05:40:33;17.30;99.90
5834;DHT22;2943;48.012;10.968;2023-06-14T05:43:01;17.40;99.90
5834;DHT22;2943;48.012;10.968;2023-06-14T05:45:28;17.50;99.90
5834;DHT22;2943;48.012;10.968;2023-06-14T05:47:55;17.60;99.70
5834;DHT22;2943;48.012;10.968;2023-06-14T05:50:23;17.60;99.20
5834;DHT22;2943;48.012;10.968;2023-06-14T05:52:50;17.60;98.80
5834;DHT22;2943;48.012;10.968;2023-06-14T05:55:17;17.50;99.10
5834;DHT22;2943;48.012;10.968;2023-06-14T05:57:45;17.30;99.50
5834;DHT22;2943;48.012;10.968;2023-06-14T06:00:16;17.10;99.90
5834;DHT22;2943;48.012;10.968;2023-06-14T06:02:44;16.80;99.60
5834;DHT22;2943;48.012;10.968;2023-06-14T06:05:13;16.70;99.90
5834;DHT22;2943;48.012;10.968;2023-06-14T06:07:41;16.40;99.90
5834;DHT22;2943;48.012;10.968;2023-06-14T06:10:10;16.30;99.90
5834;DHT22;2943;48.012;10.968;2023-06-14T06:12:37;16.20;99.90
5834;DHT22;2943;48.012;10.968;2023-06-14T06:15:04;16.10;99.90
5834;DHT22;2943;48.012;10.968;2023-06-14T06:17:33;16.10;99.40
5834;DHT22;2943;48.012;10.968;2023-06-14T06:20:00;16.10;99.00
5834;DHT22;2943;48.012;10.968;2023-06-14T06:22:28;16.10;99.80
5834;DHT22;2943;48.012;10.968;2023-06-14T06:24:55;16.20;99.90
5834;DHT22;2943;48.012;10.968;2023-06-14T06:27:23;16.20;99.90
5834;DHT22;2943;48.012;10.968;2023-06-14T06:29:52;16.20;99.90
5834;DHT22;2943;48.012;10.968;2023-06-14T06:32:24;16.30;99.90
5834;DHT22;2943;48.012;10.968;2023-06-14T06:35:10;16.30;99.90
5834;DHT22;2943;48.012;10.968;2023-06-14T06:37:52;16.30;99.90
5834;DHT22;2943;48.012;10.968;2023-06-14T06:40:19;16.40;99.90
5834;DHT22;2943;48.012;10.968;2023-06-14T06:42:46;16.30;99.90
5834;DHT22;2943;48.012;10.968;2023-06-14T06:45:13;16.30;99.90
5834;DHT22;2943;48.012;10.968;2023-06-14T06:47:40;16.30;99.90
5834;DHT22;2943;48.012;10.968;2023-06-14T06:50:09;16.30;99.90
5834;DHT22;2943;48.012;10.968;2023-06-14T06:52:36;16.30;99.90
5834;DHT22;2943;48.012;10.968;2023-06-14T06:55:06;16.30;99.20
5834;DHT22;2943;48.012;10.968;2023-06-14T06:57:34;16.30;99.60
5834;DHT22;2943;48.012;10.968;2023-06-14T07:00:01;16.40;99.70
5834;DHT22;2943;48.012;10.968;2023-06-14T07:02:29;16.50;99.40
5834;DHT22;2943;48.012;10.968;2023-06-14T07:04:56;16.60;99.90
5834;DHT22;2943;48.012;10.968;2023-06-14T07:07:25;16.70;99.90
5834;DHT22;2943;48.012;10.968;2023-06-14T07:09:52;16.80;99.90
5834;DHT22;2943;48.012;10.968;2023-06-14T07:12:20;16.80;99.90
5834;DHT22;2943;48.012;10.968;2023-06-14T07:14:47;16.80;99.90
5834;DHT22;2943;48.012;10.968;2023-06-14T07:17:14;17.00;99.90
5834;DHT22;2943;48.012;10.968;2023-06-14T07:19:41;17.00;99.90
5834;DHT22;2943;48.012;10.968;2023-06-14T07:22:08;17.00;99.90
5834;DHT22;2943;48.012;10.968;2023-06-14T07:24:36;17.10;99.90
5834;DHT22;2943;48.012;10.968;2023-06-14T07:27:03;17.10;99.90
5834;DHT22;2943;48.012;10.968;2023-06-14T07:29:31;17.20;99.90
5834;DHT22;2943;48.012;10.968;2023-06-14T07:31:58;17.30;99.90
5834;DHT22;2943;48.012;10.968;2023-06-14T07:34:25;17.40;99.90
5834;DHT22;2943;48.012;10.968;2023-06-14T07:36:52;17.40;99.90
5834;DHT22;2943;48.012;10.968;2023-06-14T07:39:20;17.50;99.90
5834;DHT22;2943;48.012;10.968;2023-06-14T07:41:48;17.50;99.90
5834;DHT22;2943;48.012;10.968;2023-06-14T07:44:15;17.60;99.90
5834;DHT22;2943;48.012;10.968;2023-06-14T07:46:43;17.70;99.90
5834;DHT22;2943;48.012;10.968;2023-06-14T07:49:11;17.80;99.70
5834;DHT22;2943;48.012;10.968;2023-06-14T07:51:38;17.90;98.70
5834;DHT22;2943;48.012;10.968;2023-06-14T07:54:05;18.00;98.50
5834;DHT22;2943;48.012;10.968;2023-06-14T07:56:34;18.10;98.40
5834;DHT22;2943;48.012;10.968;2023-06-14T07:59:02;18.10;96.90
5834;DHT22;2943;48.012;10.968;2023-06-14T08:01:29;18.20;97.30
5834;DHT22;2943;48.012;10.968;2023-06-14T08:03:56;18.30;96.40
5834;DHT22;2943;48.012;10.968;2023-06-14T08:06:23;18.40;96.00
5834;DHT22;2943;48.012;10.968;2023-06-14T08:08:51;18.40;97.20
5834;DHT22;2943;48.012;10.968;2023-06-14T08:11:18;18.50;96.40
5834;DHT22;2943;48.012;10.968;2023-06-14T08:13:46;18.60;95.90
5834;DHT22;2943;48.012;10.968;2023-06-14T08:16:14;18.80;95.90
5834;DHT22;2943;48.012;10.968;2023-06-14T08:18:41;18.90;95.00
5834;DHT22;2943;48.012;10.968;2023-06-14T08:21:08;19.00;93.70
5834;DHT22;2943;48.012;10.968;2023-06-14T08:23:35;19.10;93.50
5834;DHT22;2943;48.012;10.968;2023-06-14T08:26:02;19.10;91.70
5834;DHT22;2943;48.012;10.968;2023-06-14T08:28:29;19.20;92.50
5834;DHT22;2943;48.012;10.968;2023-06-14T08:30:56;19.20;91.70
5834;DHT22;2943;48.012;10.968;2023-06-14T08:33:25;19.30;91.10
5834;DHT22;2943;48.012;10.968;2023-06-14T08:35:52;19.40;92.50
5834;DHT22;2943;48.012;10.968;2023-06-14T08:38:19;19.50;91.50
5834;DHT22;2943;48.012;10.968;2023-06-14T08:40:48;19.60;91.80
5834;DHT22;2943;48.012;10.968;2023-06-14T08:43:17;19.70;91.90
5834;DHT22;2943;48.012;10.968;2023-06-14T08:45:46;19.90;92.10
5834;DHT22;2943;48.012;10.968;2023-06-14T08:48:14;19.90;91.40
5834;DHT22;2943;48.012;10.968;2023-06-14T08:50:45;20.00;91.30
5834;DHT22;2943;48.012;10.968;2023-06-14T08:53:15;20.20;92.00
5834;DHT22;2943;48.012;10.968;2023-06-14T08:55:48;20.30;91.30
5834;DHT22;2943;48.012;10.968;2023-06-14T08:58:16;20.40;89.60
5834;DHT22;2943;48.012;10.968;2023-06-14T09:00:43;20.50;89.40
5834;DHT22;2943;48.012;10.968;2023-06-14T09:03:10;20.50;89.20
5834;DHT22;2943;48.012;10.968;2023-06-14T09:05:38;20.60;88.60
5834;DHT22;2943;48.012;10.968;2023-06-14T09:08:07;20.60;88.50
5834;DHT22;2943;48.012;10.968;2023-06-14T09:10:36;20.70;88.80
5834;DHT22;2943;48.012;10.968;2023-06-14T09:13:03;20.80;88.10
5834;DHT22;2943;48.012;10.968;2023-06-14T09:15:30;20.90;86.90
5834;DHT22;2943;48.012;10.968;2023-06-14T09:17:57;21.00;85.40
5834;DHT22;2943;48.012;10.968;2023-06-14T09:20:24;21.10;84.80
5834;DHT22;2943;48.012;10.968;2023-06-14T09:22:53;21.10;83.20
5834;DHT22;2943;48.012;10.968;2023-06-14T09:25:24;21.20;86.30
5834;DHT22;2943;48.012;10.968;2023-06-14T09:27:52;21.30;84.70
5834;DHT22;2943;48.012;10.968;2023-06-14T09:30:20;21.40;86.10
5834;DHT22;2943;48.012;10.968;2023-06-14T09:32:47;21.50;87.00
5834;DHT22;2943;48.012;10.968;2023-06-14T09:35:17;21.60;81.20
5834;DHT22;2943;48.012;10.968;2023-06-14T09:37:44;21.60;82.60
5834;DHT22;2943;48.012;10.968;2023-06-14T09:40:12;21.70;80.00
5834;DHT22;2943;48.012;10.968;2023-06-14T09:42:42;21.80;79.40
5834;DHT22;2943;48.012;10.968;2023-06-14T09:45:11;21.90;79.10
5834;DHT22;2943;48.012;10.968;2023-06-14T09:47:39;21.90;79.80
5834;DHT22;2943;48.012;10.968;2023-06-14T09:50:07;22.00;80.20
5834;DHT22;2943;48.012;10.968;2023-06-14T09:52:34;22.10;79.50
5834;DHT22;2943;48.012;10.968;2023-06-14T09:55:11;22.20;78.60
5834;DHT22;2943;48.012;10.968;2023-06-14T09:57:42;22.30;77.70
5834;DHT22;2943;48.012;10.968;2023-06-14T10:00:14;22.30;76.80
5834;DHT22;2943;48.012;10.968;2023-06-14T10:02:43;22.40;78.30
5834;DHT22;2943;48.012;10.968;2023-06-14T10:05:17;22.50;74.90
5834;DHT22;2943;48.012;10.968;2023-06-14T10:07:52;22.60;76.20
5834;DHT22;2943;48.012;10.968;2023-06-14T10:10:21;22.70;75.00
5834;DHT22;2943;48.012;10.968;2023-06-14T10:12:50;22.60;72.70
5834;DHT22;2943;48.012;10.968;2023-06-14T10:15:20;22.50;77.80
5834;DHT22;2943;48.012;10.968;2023-06-14T10:17:51;22.50;75.00
5834;DHT22;2943;48.012;10.968;2023-06-14T10:20:27;22.60;74.20
5834;DHT22;2943;48.012;10.968;2023-06-14T10:23:01;22.70;71.60
5834;DHT22;2943;48.012;10.968;2023-06-14T10:25:34;22.70;73.00
5834;DHT22;2943;48.012;10.968;2023-06-14T10:28:19;22.80;72.20
5834;DHT22;2943;48.012;10.968;2023-06-14T10:31:05;22.70;72.00
5834;DHT22;2943;48.012;10.968;2023-06-14T10:33:33;22.80;75.10
5834;DHT22;2943;48.012;10.968;2023-06-14T10:36:25;22.90;74.50
5834;DHT22;2943;48.012;10.968;2023-06-14T10:39:05;23.00;74.10
5834;DHT22;2943;48.012;10.968;2023-06-14T10:41:35;23.10;73.30
5834;DHT22;2943;48.012;10.968;2023-06-14T10:44:38;23.30;73.10
5834;DHT22;2943;48.012;10.968;2023-06-14T10:47:10;23.40;72.20
5834;DHT22;2943;48.012;10.968;2023-06-14T10:49:40;23.40;72.60
5834;DHT22;2943;48.012;10.968;2023-06-14T10:52:11;23.50;73.40
5834;DHT22;2943;48.012;10.968;2023-06-14T10:57:42;23.70;71.80
5834;DHT22;2943;48.012;10.968;2023-06-14T11:00:14;23.80;68.90
5834;DHT22;2943;48.012;10.968;2023-06-14T11:05:55;23.80;73.10
5834;DHT22;2943;48.012;10.968;2023-06-14T11:08:33;23.90;69.20
5834;DHT22;2943;48.012;10.968;2023-06-14T11:11:08;24.00;68.80
5834;DHT22;2943;48.012;10.968;2023-06-14T11:13:38;24.00;70.00
5834;DHT22;2943;48.012;10.968;2023-06-14T11:16:14;24.10;68.00
5834;DHT22;2943;48.012;10.968;2023-06-14T11:18:41;24.20;68.50
5834;DHT22;2943;48.012;10.968;2023-06-14T11:21:08;24.30;67.30
5834;DHT22;2943;48.012;10.968;2023-06-14T11:23:35;24.50;67.10
5834;DHT22;2943;48.012;10.968;2023-06-14T11:26:02;24.60;66.10
5834;DHT22;2943;48.012;10.968;2023-06-14T11:28:38;24.70;67.70
5834;DHT22;2943;48.012;10.968;2023-06-14T11:31:06;24.70;69.50
5834;DHT22;2943;48.012;10.968;2023-06-14T11:33:34;24.90;69.40
5834;DHT22;2943;48.012;10.968;2023-06-14T11:36:04;25.00;68.10
5834;DHT22;2943;48.012;10.968;2023-06-14T11:38:35;25.20;72.70
5834;DHT22;2943;48.012;10.968;2023-06-14T11:41:03;25.40;69.10
5834;DHT22;2943;48.012;10.968;2023-06-14T11:43:31;25.60;67.50
5834;DHT22;2943;48.012;10.968;2023-06-14T11:46:01;25.60;66.30
5834;DHT22;2943;48.012;10.968;2023-06-14T11:48:40;25.60;66.50
5834;DHT22;2943;48.012;10.968;2023-06-14T11:51:07;25.40;66.40
5834;DHT22;2943;48.012;10.968;2023-06-14T11:53:34;25.30;66.30
5834;DHT22;2943;48.012;10.968;2023-06-14T11:56:01;25.30;67.50
5834;DHT22;2943;48.012;10.968;2023-06-14T11:58:29;25.20;66.40
5834;DHT22;2943;48.012;10.968;2023-06-14T12:00:58;25.30;67.20
5834;DHT22;2943;48.012;10.968;2023-06-14T12:03:26;25.40;66.70
5834;DHT22;2943;48.012;10.968;2023-06-14T12:06:10;25.50;66.70
5834;DHT22;2943;48.012;10.968;2023-06-14T12:08:38;25.60;67.80
5834;DHT22;2943;48.012;10.968;2023-06-14T12:11:11;25.80;66.60
5834;DHT22;2943;48.012;10.968;2023-06-14T12:13:40;26.00;68.60
5834;DHT22;2943;48.012;10.968;2023-06-14T12:16:09;26.10;66.00
5834;DHT22;2943;48.012;10.968;2023-06-14T12:18:37;26.30;66.70
5834;DHT22;2943;48.012;10.968;2023-06-14T12:21:06;26.40;65.10
5834;DHT22;2943;48.012;10.968;2023-06-14T12:23:43;26.60;64.40
5834;DHT22;2943;48.012;10.968;2023-06-14T12:26:13;26.70;63.20
5834;DHT22;2943;48.012;10.968;2023-06-14T12:28:40;26.60;62.10
5834;DHT22;2943;48.012;10.968;2023-06-14T12:31:09;26.50;62.50
5834;DHT22;2943;48.012;10.968;2023-06-14T12:33:37;26.50;64.20
5834;DHT22;2943;48.012;10.968;2023-06-14T12:36:08;26.60;65.00
5834;DHT22;2943;48.012;10.968;2023-06-14T12:38:36;26.60;64.90
5834;DHT22;2943;48.012;10.968;2023-06-14T12:41:03;26.70;67.30
5834;DHT22;2943;48.012;10.968;2023-06-14T12:43:31;26.80;63.50
5834;DHT22;2943;48.012;10.968;2023-06-14T12:46:00;26.70;62.20
5834;DHT22;2943;48.012;10.968;2023-06-14T12:48:27;26.70;63.50
5834;DHT22;2943;48.012;10.968;2023-06-14T12:50:56;26.50;62.60
5834;DHT22;2943;48.012;10.968;2023-06-14T12:53:26;26.40;63.90
5834;DHT22;2943;48.012;10.968;2023-06-14T12:55:53;26.30;64.80
5834;DHT22;2943;48.012;10.968;2023-06-14T12:58:20;26.40;66.10
5834;DHT22;2943;48.012;10.968;2023-06-14T13:00:50;26.50;66.00
5834;DHT22;2943;48.012;10.968;2023-06-14T13:03:17;26.70;64.60
5834;DHT22;2943;48.012;10.968;2023-06-14T13:05:44;27.00;65.20
5834;DHT22;2943;48.012;10.968;2023-06-14T13:08:12;27.20;63.20
5834;DHT22;2943;48.012;10.968;2023-06-14T13:10:41;27.40;64.20
5834;DHT22;2943;48.012;10.968;2023-06-14T13:13:08;27.50;63.50
5834;DHT22;2943;48.012;10.968;2023-06-14T13:15:39;27.50;63.70
5834;DHT22;2943;48.012;10.968;2023-06-14T13:18:06;27.60;65.50
5834;DHT22;2943;48.012;10.968;2023-06-14T13:20:33;27.60;64.20
5834;DHT22;2943;48.012;10.968;2023-06-14T13:22:59;27.80;64.00
5834;DHT22;2943;48.012;10.968;2023-06-14T13:25:28;28.00;62.90
5834;DHT22;2943;48.012;10.968;2023-06-14T13:27:57;27.80;63.10
5834;DHT22;2943;48.012;10.968;2023-06-14T13:30:23;27.70;62.30
5834;DHT22;2943;48.012;10.968;2023-06-14T13:32:50;27.60;61.90
5834;DHT22;2943;48.012;10.968;2023-06-14T13:35:18;27.40;61.70
5834;DHT22;2943;48.012;10.968;2023-06-14T13:37:44;27.40;62.10
5834;DHT22;2943;48.012;10.968;2023-06-14T13:40:12;27.20;61.40
5834;DHT22;2943;48.012;10.968;2023-06-14T13:42:39;26.90;61.90
5834;DHT22;2943;48.012;10.968;2023-06-14T13:45:09;26.70;62.20
5834;DHT22;2943;48.012;10.968;2023-06-14T13:47:37;26.60;63.30
5834;DHT22;2943;48.012;10.968;2023-06-14T13:50:04;26.70;62.50
5834;DHT22;2943;48.012;10.968;2023-06-14T13:52:31;26.80;61.40
5834;DHT22;2943;48.012;10.968;2023-06-14T13:54:58;26.90;62.00
5834;DHT22;2943;48.012;10.968;2023-06-14T13:57:26;27.00;62.80
5834;DHT22;2943;48.012;10.968;2023-06-14T13:59:52;27.10;63.60
5834;DHT22;2943;48.012;10.968;2023-06-14T14:02:22;27.20;63.40
5834;DHT22;2943;48.012;10.968;2023-06-14T14:04:49;27.50;63.40
5834;DHT22;2943;48.012;10.968;2023-06-14T14:07:19;27.80;63.30
5834;DHT22;2943;48.012;10.968;2023-06-14T14:09:45;28.10;61.90
5834;DHT22;2943;48.012;10.968;2023-06-14T14:12:13;28.40;64.10
5834;DHT22;2943;48.012;10.968;2023-06-14T14:14:40;28.50;60.10
5834;DHT22;2943;48.012;10.968;2023-06-14T14:17:07;28.40;59.70
5834;DHT22;2943;48.012;10.968;2023-06-14T14:19:36;27.90;59.60
5834;DHT22;2943;48.012;10.968;2023-06-14T14:22:03;27.50;60.00
5834;DHT22;2943;48.012;10.968;2023-06-14T14:24:29;27.40;59.80
5834;DHT22;2943;48.012;10.968;2023-06-14T14:26:56;27.40;61.50
5834;DHT22;2943;48.012;10.968;2023-06-14T14:29:25;27.50;61.00
5834;DHT22;2943;48.012;10.968;2023-06-14T14:31:54;27.60;61.80
5834;DHT22;2943;48.012;10.968;2023-06-14T14:34:21;27.60;60.40
5834;DHT22;2943;48.012;10.968;2023-06-14T14:36:49;27.70;60.30
5834;DHT22;2943;48.012;10.968;2023-06-14T14:39:16;27.70;60.80
5834;DHT22;2943;48.012;10.968;2023-06-14T14:41:43;27.50;62.60
5834;DHT22;2943;48.012;10.968;2023-06-14T14:44:10;27.30;61.20
5834;DHT22;2943;48.012;10.968;2023-06-14T14:46:36;27.20;61.10
5834;DHT22;2943;48.012;10.968;2023-06-14T14:49:04;27.20;61.20
5834;DHT22;2943;48.012;10.968;2023-06-14T14:51:31;27.20;61.10
5834;DHT22;2943;48.012;10.968;2023-06-14T14:53:59;27.40;60.00
5834;DHT22;2943;48.012;10.968;2023-06-14T14:56:25;27.50;60.00
5834;DHT22;2943;48.012;10.968;2023-06-14T14:58:52;27.50;59.30
5834;DHT22;2943;48.012;10.968;2023-06-14T15:01:19;27.50;59.10
5834;DHT22;2943;48.012;10.968;2023-06-14T15:03:46;27.70;59.30
5834;DHT22;2943;48.012;10.968;2023-06-14T15:06:13;27.80;59.10
5834;DHT22;2943;48.012;10.968;2023-06-14T15:08:39;27.80;58.30
5834;DHT22;2943;48.012;10.968;2023-06-14T15:11:07;27.80;58.20
5834;DHT22;2943;48.012;10.968;2023-06-14T15:13:34;27.90;58.40
5834;DHT22;2943;48.012;10.968;2023-06-14T15:16:01;28.10;57.60
5834;DHT22;2943;48.012;10.968;2023-06-14T15:18:28;28.10;57.80
5834;DHT22;2943;48.012;10.968;2023-06-14T15:20:54;28.30;57.80
5834;DHT22;2943;48.012;10.968;2023-06-14T15:23:21;28.40;58.30
5834;DHT22;2943;48.012;10.968;2023-06-14T15:25:49;28.50;57.70
5834;DHT22;2943;48.012;10.968;2023-06-14T15:28:18;28.50;58.60
5834;DHT22;2943;48.012;10.968;2023-06-14T15:30:47;28.60;58.30
5834;DHT22;2943;48.012;10.968;2023-06-14T15:33:13;28.70;58.30
5834;DHT22;2943;48.012;10.968;2023-06-14T15:35:40;28.70;56.90
5834;DHT22;2943;48.012;10.968;2023-06-14T15:38:07;28.50;57.50
5834;DHT22;2943;48.012;10.968;2023-06-14T15:40:34;28.50;58.80
5834;DHT22;2943;48.012;10.968;2023-06-14T15:43:00;28.50;57.50
5834;DHT22;2943;48.012;10.968;2023-06-14T15:45:29;28.50;57.70
5834;DHT22;2943;48.012;10.968;2023-06-14T15:47:56;28.50;57.60
5834;DHT22;2943;48.012;10.968;2023-06-14T15:50:23;28.30;57.30
5834;DHT22;2943;48.012;10.968;2023-06-14T15:52:50;28.10;56.90
5834;DHT22;2943;48.012;10.968;2023-06-14T15:55:16;28.00;57.60
5834;DHT22;2943;48.012;10.968;2023-06-14T15:57:43;27.90;58.20
5834;DHT22;2943;48.012;10.968;2023-06-14T16:00:11;28.00;58.10